Time;durP1;ratioP1;P1;durP2;ratioP2;P2;SDS_P1;SDS_P2;PMS_P1;PMS_P2;Temp;Humidity;BMP_temperature;BMP_pressure;BME280_temperature;BME280_humidity;BME280_pressure;Samples;Min_cycle;Max_cycle;Signal;HPM_P1;HPM_P2
2022/04/30 00:02:06;;;;;;;18.90;15.83;;;;;;;;;;5054553;28;20406;-86
2022/04/30 00:04:33;;;;;;;19.50;13.70;;;;;;;;;;5034854;28;20409;-85
2022/04/30 00:07:00;;;;;;;23.23;12.53;;;;;;;;;;5051171;28;20409;-87
2022/04/30 00:09:26;;;;;;;14.53;12.07;;;;;;;;;;5045509;28;20964;-87
2022/04/30 00:11:53;;;;;;;15.07;12.20;;;;;;;;;;5043962;28;20425;-87
2022/04/30 00:14:19;;;;;;;15.40;11.30;;;;;;;;;;5045608;28;20485;-87
2022/04/30 00:16:45;;;;;;;16.30;12.17;;;;;;;;;;5046006;28;20831;-87
2022/04/30 00:19:11;;;;;;;15.67;11.33;;;;;;;;;;5045994;28;20391;-86
2022/04/30 00:21:37;;;;;;;16.60;10.80;;;;;;;;;;5044550;28;20918;-87
2022/04/30 00:24:03;;;;;;;13.70;10.40;;;;;;;;;;5027573;28;20449;-87
2022/04/30 00:26:30;;;;;;;13.80;11.27;;;;;;;;;;5045984;28;20472;-87
2022/04/30 00:28:56;;;;;;;14.20;11.57;;;;;;;;;;5044093;28;20418;-87
2022/04/30 00:31:22;;;;;;;15.00;11.80;;;;;;;;;;5043942;28;20437;-86
2022/04/30 00:33:48;;;;;;;13.13;10.97;;;;;;;;;;5025468;28;20418;-86
2022/04/30 00:36:15;;;;;;;13.83;10.70;;;;;;;;;;5044316;28;20407;-86
2022/04/30 00:38:41;;;;;;;12.60;10.83;;;;;;;;;;5044142;28;20429;-86
2022/04/30 00:41:08;;;;;;;15.13;11.27;;;;;;;;;;5045056;28;20429;-87
2022/04/30 00:43:47;;;;;;;16.03;11.80;;;;;;;;;;5047091;28;20483;-86
2022/04/30 00:46:16;;;;;;;15.93;12.17;;;;;;;;;;5060358;28;20413;-86
2022/04/30 00:48:42;;;;;;;16.93;13.00;;;;;;;;;;5048742;28;20546;-87
2022/04/30 00:51:12;;;;;;;15.27;11.23;;;;;;;;;;5045671;28;20426;-87
2022/04/30 00:53:39;;;;;;;14.50;10.70;;;;;;;;;;5045619;28;20407;-86
2022/04/30 00:56:07;;;;;;;13.70;12.20;;;;;;;;;;5048442;28;20406;-87
2022/04/30 00:58:34;;;;;;;23.63;11.40;;;;;;;;;;5027581;28;20821;-87
2022/04/30 01:01:02;;;;;;;13.17;11.40;;;;;;;;;;5043381;28;20794;-87
2022/04/30 01:03:29;;;;;;;14.60;11.80;;;;;;;;;;5043021;28;20445;-86
2022/04/30 01:05:55;;;;;;;15.03;10.87;;;;;;;;;;5029303;28;20430;-87
2022/04/30 01:08:22;;;;;;;13.80;10.87;;;;;;;;;;5059718;28;20416;-85
2022/04/30 01:10:48;;;;;;;16.47;11.70;;;;;;;;;;5059628;28;20516;-86
2022/04/30 01:13:15;;;;;;;18.73;11.20;;;;;;;;;;5059694;28;20405;-86
2022/04/30 01:15:41;;;;;;;13.93;10.20;;;;;;;;;;5059579;28;20894;-86
2022/04/30 01:18:10;;;;;;;16.60;12.63;;;;;;;;;;5059733;28;20586;-86
2022/04/30 01:20:38;;;;;;;15.20;11.60;;;;;;;;;;5059817;28;20944;-86
2022/04/30 01:23:05;;;;;;;12.67;10.43;;;;;;;;;;5041488;28;20405;-86
2022/04/30 01:25:31;;;;;;;15.03;11.30;;;;;;;;;;5059492;28;20410;-86
2022/04/30 01:28:01;;;;;;;15.03;10.93;;;;;;;;;;5059101;28;20401;-86
2022/04/30 01:30:27;;;;;;;13.50;10.00;;;;;;;;;;5059988;28;20421;-85
2022/04/30 01:38:23;;;;;;;18.53;11.70;;;;;;;;;;5059158;28;20499;-85
2022/04/30 01:40:49;;;;;;;14.53;11.40;;;;;;;;;;5058493;28;20429;-85
2022/04/30 01:43:16;;;;;;;16.57;11.90;;;;;;;;;;5062745;28;20398;-84
2022/04/30 01:45:44;;;;;;;15.70;10.90;;;;;;;;;;5074797;28;20401;-86
2022/04/30 01:48:14;;;;;;;14.87;10.50;;;;;;;;;;5072958;28;20402;-88
2022/04/30 01:50:40;;;;;;;14.23;10.67;;;;;;;;;;5054963;28;20428;-87
2022/04/30 01:53:06;;;;;;;13.20;10.70;;;;;;;;;;5068380;28;20481;-86
2022/04/30 01:55:32;;;;;;;13.80;10.30;;;;;;;;;;5062412;28;20401;-86
2022/04/30 01:57:58;;;;;;;13.20;10.70;;;;;;;;;;5062737;28;20456;-86
2022/04/30 02:00:26;;;;;;;13.13;10.70;;;;;;;;;;5052692;28;20448;-86
2022/04/30 02:02:53;;;;;;;16.10;10.73;;;;;;;;;;5076309;28;20398;-86
2022/04/30 02:05:20;;;;;;;14.70;11.60;;;;;;;;;;5070197;28;20543;-87
2022/04/30 02:07:49;;;;;;;14.63;11.53;;;;;;;;;;5065473;28;20410;-87
2022/04/30 02:10:18;;;;;;;11.93;10.10;;;;;;;;;;5063986;28;20437;-87
2022/04/30 02:12:45;;;;;;;16.10;12.53;;;;;;;;;;5064228;28;20435;-88
2022/04/30 02:15:13;;;;;;;17.13;11.20;;;;;;;;;;5071879;28;20394;-87
2022/04/30 02:17:41;;;;;;;15.60;11.67;;;;;;;;;;5064405;28;20476;-87
2022/04/30 02:22:39;;;;;;;15.00;11.90;;;;;;;;;;5079750;28;20457;-81
2022/04/30 02:25:09;;;;;;;16.63;12.43;;;;;;;;;;5085334;28;20415;-81
2022/04/30 02:27:36;;;;;;;21.23;12.90;;;;;;;;;;5085374;28;20404;-81
2022/04/30 02:30:04;;;;;;;20.80;12.13;;;;;;;;;;5067294;28;20411;-81
2022/04/30 02:32:38;;;;;;;16.67;11.13;;;;;;;;;;5085982;28;20429;-81
2022/04/30 02:35:05;;;;;;;12.80;10.53;;;;;;;;;;5085565;28;20380;-81
2022/04/30 02:37:31;;;;;;;17.80;10.63;;;;;;;;;;5085469;28;20452;-81
2022/04/30 02:39:57;;;;;;;12.83;10.43;;;;;;;;;;5085300;28;20496;-81
2022/04/30 02:42:23;;;;;;;14.60;11.47;;;;;;;;;;5085249;28;20400;-81
2022/04/30 02:44:49;;;;;;;14.57;12.00;;;;;;;;;;5086093;28;20435;-81
2022/04/30 02:47:15;;;;;;;15.03;12.37;;;;;;;;;;5085159;28;20420;-81
2022/04/30 02:49:41;;;;;;;15.47;12.33;;;;;;;;;;5085754;28;20431;-82
2022/04/30 02:52:07;;;;;;;19.50;11.70;;;;;;;;;;5085185;28;20555;-81
2022/04/30 02:54:34;;;;;;;14.30;11.13;;;;;;;;;;5085246;28;20404;-81
2022/04/30 02:57:01;;;;;;;12.27;10.33;;;;;;;;;;5084858;28;20448;-81
2022/04/30 03:02:11;;;;;;;14.40;10.47;;;;;;;;;;5084864;28;20454;-81
2022/04/30 03:04:38;;;;;;;10.50;9.43;;;;;;;;;;5085578;28;20411;-81
2022/04/30 03:07:04;;;;;;;11.47;9.60;;;;;;;;;;5084991;28;20424;-80
2022/04/30 03:09:31;;;;;;;14.37;10.67;;;;;;;;;;5085315;28;20919;-81
2022/04/30 03:11:58;;;;;;;13.00;10.47;;;;;;;;;;5086091;28;20428;-81
2022/04/30 03:14:24;;;;;;;14.23;10.20;;;;;;;;;;5087416;28;20404;-81
2022/04/30 03:22:20;;;;;;;11.37;7.70;;;;;;;;;;5085020;28;20536;-81
2022/04/30 03:24:46;;;;;;;12.87;9.77;;;;;;;;;;5085705;28;20772;-81
2022/04/30 03:27:17;;;;;;;13.20;9.83;;;;;;;;;;5085394;28;20433;-81
2022/04/30 03:29:44;;;;;;;13.63;10.63;;;;;;;;;;5085843;28;20389;-81
2022/04/30 03:32:10;;;;;;;30.33;19.13;;;;;;;;;;5089097;28;20432;-81
2022/04/30 03:34:36;;;;;;;13.20;9.57;;;;;;;;;;5071459;28;20413;-81
2022/04/30 03:37:03;;;;;;;13.43;9.40;;;;;;;;;;5088747;28;20497;-81
2022/04/30 03:39:29;;;;;;;11.00;8.90;;;;;;;;;;5071735;28;20409;-79
2022/04/30 03:41:55;;;;;;;11.43;9.80;;;;;;;;;;5091942;28;20424;-81
2022/04/30 03:44:21;;;;;;;10.90;9.30;;;;;;;;;;5090132;28;20405;-81
2022/04/30 03:46:47;;;;;;;11.93;10.10;;;;;;;;;;5089264;28;20469;-81
2022/04/30 03:49:13;;;;;;;11.97;9.30;;;;;;;;;;5088756;28;20401;-81
2022/04/30 03:51:39;;;;;;;11.20;9.37;;;;;;;;;;5088687;28;20425;-80
2022/04/30 03:54:05;;;;;;;10.23;8.97;;;;;;;;;;5088575;28;20472;-81
2022/04/30 03:56:32;;;;;;;10.90;8.70;;;;;;;;;;5088250;28;20445;-81
2022/04/30 03:58:58;;;;;;;10.13;9.03;;;;;;;;;;5070009;28;20415;-81
2022/04/30 04:01:24;;;;;;;15.20;8.87;;;;;;;;;;5088236;28;20421;-80
2022/04/30 04:03:51;;;;;;;10.60;9.17;;;;;;;;;;5088297;28;20824;-81
2022/04/30 04:06:20;;;;;;;10.50;9.37;;;;;;;;;;5087706;28;20404;-81
2022/04/30 04:08:52;;;;;;;9.77;8.77;;;;;;;;;;5089040;28;20408;-81
2022/04/30 04:11:20;;;;;;;11.20;8.83;;;;;;;;;;5087703;28;20435;-81
2022/04/30 04:19:16;;;;;;;13.60;10.67;;;;;;;;;;5086786;28;20399;-81
2022/04/30 04:21:42;;;;;;;10.63;9.53;;;;;;;;;;5086784;28;20443;-81
2022/04/30 04:26:54;;;;;;;10.63;8.70;;;;;;;;;;5085374;28;20421;-81
2022/04/30 04:29:20;;;;;;;11.10;9.33;;;;;;;;;;5084440;28;20435;-81
2022/04/30 04:31:46;;;;;;;10.03;8.37;;;;;;;;;;5080034;28;20920;-81
2022/04/30 04:34:12;;;;;;;11.30;9.50;;;;;;;;;;5083136;28;20443;-81
2022/04/30 04:36:39;;;;;;;9.30;8.17;;;;;;;;;;5085572;28;20448;-81
2022/04/30 04:39:10;;;;;;;10.20;9.20;;;;;;;;;;5081869;28;20400;-81
2022/04/30 04:41:36;;;;;;;12.00;9.67;;;;;;;;;;5081435;28;20490;-82
2022/04/30 04:44:02;;;;;;;11.77;8.63;;;;;;;;;;5084156;28;20431;-82
2022/04/30 04:46:28;;;;;;;11.90;8.10;;;;;;;;;;5088522;28;20404;-80
2022/04/30 04:48:55;;;;;;;9.60;7.63;;;;;;;;;;5089435;28;20401;-81
2022/04/30 04:51:21;;;;;;;9.87;8.87;;;;;;;;;;5080843;28;20421;-81
2022/04/30 04:53:47;;;;;;;12.17;8.57;;;;;;;;;;5081413;28;20405;-81
2022/04/30 04:56:13;;;;;;;9.57;8.57;;;;;;;;;;5082236;28;20432;-81
2022/04/30 04:58:42;;;;;;;12.43;9.63;;;;;;;;;;5064748;28;20417;-81
2022/04/30 05:01:09;;;;;;;9.50;8.23;;;;;;;;;;5082730;28;20500;-81
2022/04/30 05:03:35;;;;;;;9.93;8.10;;;;;;;;;;5082994;28;20393;-81
2022/04/30 05:06:01;;;;;;;11.37;8.40;;;;;;;;;;5083750;28;20408;-81
2022/04/30 05:08:27;;;;;;;10.27;8.93;;;;;;;;;;5084272;28;20404;-80
2022/04/30 05:10:53;;;;;;;10.40;8.50;;;;;;;;;;5084533;28;20493;-81
2022/04/30 05:13:19;;;;;;;9.27;8.37;;;;;;;;;;5085495;28;20407;-81
2022/04/30 05:15:45;;;;;;;14.07;8.13;;;;;;;;;;5086350;28;20412;-81
2022/04/30 05:18:11;;;;;;;9.00;8.10;;;;;;;;;;5087328;28;20630;-81
2022/04/30 05:20:38;;;;;;;12.97;10.00;;;;;;;;;;5086631;28;20451;-81
2022/04/30 05:23:04;;;;;;;13.80;10.63;;;;;;;;;;5086394;28;20393;-81
2022/04/30 05:25:30;;;;;;;9.43;8.47;;;;;;;;;;5086890;28;20403;-81
2022/04/30 05:27:56;;;;;;;11.23;8.83;;;;;;;;;;5086886;28;20435;-81
2022/04/30 05:30:23;;;;;;;14.87;8.37;;;;;;;;;;5086616;28;20455;-81
2022/04/30 05:32:49;;;;;;;13.50;8.80;;;;;;;;;;5087206;28;20405;-81
2022/04/30 05:35:15;;;;;;;11.70;10.00;;;;;;;;;;5087225;28;20415;-81
2022/04/30 05:37:41;;;;;;;10.97;9.60;;;;;;;;;;5087247;28;20452;-81
2022/04/30 05:40:08;;;;;;;12.40;8.70;;;;;;;;;;5086815;28;20393;-81
2022/04/30 05:42:34;;;;;;;13.30;10.17;;;;;;;;;;5086978;28;20405;-81
2022/04/30 05:45:00;;;;;;;13.90;10.47;;;;;;;;;;5086568;28;20401;-81
2022/04/30 05:47:26;;;;;;;11.03;9.93;;;;;;;;;;5087225;28;20405;-81
2022/04/30 05:49:52;;;;;;;11.10;9.87;;;;;;;;;;5089426;28;20408;-81
2022/04/30 05:52:21;;;;;;;13.73;10.23;;;;;;;;;;5089331;28;20439;-81
2022/04/30 05:54:47;;;;;;;13.00;10.60;;;;;;;;;;5089320;28;20768;-81
2022/04/30 05:57:13;;;;;;;12.77;11.47;;;;;;;;;;5087911;28;20482;-81
2022/04/30 05:59:39;;;;;;;11.87;10.63;;;;;;;;;;5087291;28;20397;-81
2022/04/30 06:02:06;;;;;;;11.83;10.30;;;;;;;;;;5086392;28;20477;-81
2022/04/30 06:04:32;;;;;;;14.97;10.90;;;;;;;;;;5086985;28;20404;-81
2022/04/30 06:06:58;;;;;;;15.90;12.10;;;;;;;;;;5087233;28;20404;-81
2022/04/30 06:09:25;;;;;;;12.77;10.53;;;;;;;;;;5086798;28;20426;-81
2022/04/30 06:11:51;;;;;;;12.83;11.03;;;;;;;;;;5086294;28;20428;-81
2022/04/30 06:14:17;;;;;;;13.23;11.33;;;;;;;;;;5087105;28;20408;-82
2022/04/30 06:16:43;;;;;;;12.57;10.60;;;;;;;;;;5085775;28;20512;-81
2022/04/30 06:19:09;;;;;;;14.17;11.30;;;;;;;;;;5086357;28;20392;-81
2022/04/30 06:21:35;;;;;;;12.40;10.80;;;;;;;;;;5086309;28;20462;-81
2022/04/30 06:24:01;;;;;;;17.47;11.33;;;;;;;;;;5086759;28;20407;-81
2022/04/30 06:26:27;;;;;;;13.33;11.83;;;;;;;;;;5086983;28;20400;-81
2022/04/30 06:28:55;;;;;;;14.30;11.23;;;;;;;;;;5086787;28;20413;-81
2022/04/30 06:31:22;;;;;;;16.63;11.80;;;;;;;;;;5086183;28;20427;-81
2022/04/30 06:33:49;;;;;;;14.37;11.60;;;;;;;;;;5085969;28;20746;-81
2022/04/30 06:36:15;;;;;;;13.20;11.80;;;;;;;;;;5085833;28;20408;-81
2022/04/30 06:38:41;;;;;;;17.33;10.50;;;;;;;;;;5085905;28;20405;-81
2022/04/30 06:41:07;;;;;;;12.30;10.83;;;;;;;;;;5086521;28;20471;-81
2022/04/30 06:43:33;;;;;;;13.27;11.87;;;;;;;;;;5086294;28;20392;-81
2022/04/30 06:45:59;;;;;;;21.43;12.63;;;;;;;;;;5086149;28;20465;-81
2022/04/30 06:48:25;;;;;;;14.23;12.10;;;;;;;;;;5086290;28;20407;-81
2022/04/30 06:50:51;;;;;;;13.30;11.10;;;;;;;;;;5086452;28;20412;-81
2022/04/30 06:58:54;;;;;;;15.20;12.30;;;;;;;;;;5087609;28;20530;-81
2022/04/30 07:01:39;;;;;;;16.00;13.33;;;;;;;;;;5087774;28;20419;-81
2022/04/30 07:04:06;;;;;;;14.77;12.40;;;;;;;;;;5086864;28;20380;-81
2022/04/30 07:06:33;;;;;;;17.40;10.97;;;;;;;;;;5090718;28;20401;-81
2022/04/30 07:08:59;;;;;;;12.30;11.03;;;;;;;;;;5091002;28;20452;-81
2022/04/30 07:11:25;;;;;;;12.63;11.23;;;;;;;;;;5072801;28;20420;-82
2022/04/30 07:13:52;;;;;;;14.90;12.30;;;;;;;;;;5091833;28;20420;-81
2022/04/30 07:16:18;;;;;;;16.70;12.03;;;;;;;;;;5091802;28;20407;-82
2022/04/30 07:18:44;;;;;;;13.00;11.40;;;;;;;;;;5091898;28;20388;-81
2022/04/30 07:21:10;;;;;;;15.70;12.20;;;;;;;;;;5091672;28;20578;-80
2022/04/30 07:23:36;;;;;;;11.67;10.47;;;;;;;;;;5090528;28;20977;-81
2022/04/30 07:26:03;;;;;;;13.03;11.60;;;;;;;;;;5090601;28;20389;-81
2022/04/30 07:28:33;;;;;;;12.33;11.03;;;;;;;;;;5090499;28;20772;-81
2022/04/30 07:31:00;;;;;;;13.83;11.77;;;;;;;;;;5090609;28;20427;-81
2022/04/30 07:33:26;;;;;;;14.47;12.10;;;;;;;;;;5090906;28;20396;-81
2022/04/30 07:35:53;;;;;;;16.10;12.27;;;;;;;;;;5091001;28;20408;-81
2022/04/30 07:38:19;;;;;;;14.13;11.07;;;;;;;;;;5090601;28;20452;-81
2022/04/30 07:40:45;;;;;;;13.40;11.20;;;;;;;;;;5090218;28;20412;-81
2022/04/30 07:43:11;;;;;;;16.53;13.47;;;;;;;;;;5089949;28;20392;-80
2022/04/30 07:45:37;;;;;;;16.97;12.43;;;;;;;;;;5090267;28;20885;-81
2022/04/30 07:48:04;;;;;;;13.07;10.57;;;;;;;;;;5090875;28;20400;-81
2022/04/30 07:50:36;;;;;;;13.57;12.17;;;;;;;;;;5085683;28;20520;-81
2022/04/30 07:53:03;;;;;;;13.17;11.10;;;;;;;;;;5081472;28;20446;-81
2022/04/30 07:55:29;;;;;;;16.17;11.70;;;;;;;;;;5079482;28;20458;-81
2022/04/30 07:57:55;;;;;;;13.40;11.57;;;;;;;;;;5082766;28;20621;-81
2022/04/30 08:00:21;;;;;;;14.43;10.83;;;;;;;;;;5085971;28;20419;-82
2022/04/30 08:02:48;;;;;;;13.43;11.17;;;;;;;;;;5082889;28;20401;-81
2022/04/30 08:05:14;;;;;;;12.83;10.53;;;;;;;;;;5069970;28;20409;-80
2022/04/30 08:07:40;;;;;;;13.60;11.93;;;;;;;;;;5074776;28;20417;-80
2022/04/30 08:10:06;;;;;;;16.87;13.07;;;;;;;;;;5090881;28;20405;-81
2022/04/30 08:12:32;;;;;;;13.73;12.23;;;;;;;;;;5090610;28;20404;-81
2022/04/30 08:14:58;;;;;;;15.80;13.10;;;;;;;;;;5090051;28;20416;-82
2022/04/30 08:17:27;;;;;;;15.87;13.67;;;;;;;;;;5090517;28;20476;-81
2022/04/30 08:19:53;;;;;;;13.57;11.90;;;;;;;;;;5090145;28;20408;-81
2022/04/30 08:22:19;;;;;;;14.50;12.37;;;;;;;;;;5086276;22;20485;-87
2022/04/30 08:24:45;;;;;;;13.50;12.10;;;;;;;;;;5064840;28;20406;-88
2022/04/30 08:27:12;;;;;;;13.90;12.50;;;;;;;;;;5065134;28;20421;-87
2022/04/30 08:29:38;;;;;;;13.73;11.83;;;;;;;;;;5048691;28;20401;-86
2022/04/30 08:32:05;;;;;;;15.33;13.27;;;;;;;;;;5060956;28;20512;-86
2022/04/30 08:34:32;;;;;;;18.67;13.00;;;;;;;;;;5060282;28;20398;-85
2022/04/30 08:36:58;;;;;;;17.67;13.73;;;;;;;;;;5064177;28;20449;-87
2022/04/30 08:39:24;;;;;;;16.20;13.53;;;;;;;;;;5073186;28;20414;-85
2022/04/30 08:41:50;;;;;;;16.63;14.20;;;;;;;;;;5073527;28;20418;-86
2022/04/30 08:44:17;;;;;;;17.10;15.00;;;;;;;;;;5073410;28;20421;-86
2022/04/30 08:46:43;;;;;;;18.17;14.23;;;;;;;;;;5073760;28;20398;-86
2022/04/30 08:49:09;;;;;;;15.30;13.80;;;;;;;;;;5070270;28;20493;-87
2022/04/30 08:51:36;;;;;;;17.03;15.23;;;;;;;;;;5066075;28;20428;-87
2022/04/30 08:54:02;;;;;;;19.33;16.17;;;;;;;;;;5062375;28;20405;-86
2022/04/30 08:56:28;;;;;;;19.30;15.97;;;;;;;;;;5063961;28;20413;-86
2022/04/30 08:59:02;;;;;;;19.13;15.50;;;;;;;;;;5063494;28;20491;-85
2022/04/30 09:01:28;;;;;;;20.97;14.23;;;;;;;;;;5064652;28;20464;-87
2022/04/30 09:03:55;;;;;;;19.90;15.50;;;;;;;;;;5061044;28;20488;-86
2022/04/30 09:06:22;;;;;;;17.37;15.23;;;;;;;;;;5063385;28;20413;-87
2022/04/30 09:08:51;;;;;;;22.20;14.93;;;;;;;;;;5076549;28;20418;-86
2022/04/30 09:11:18;;;;;;;16.07;14.40;;;;;;;;;;5079285;28;20429;-86
2022/04/30 09:13:47;;;;;;;15.33;13.83;;;;;;;;;;5079225;28;20432;-85
2022/04/30 09:16:19;;;;;;;15.97;14.03;;;;;;;;;;5079569;28;20397;-86
2022/04/30 09:18:45;;;;;;;16.20;13.57;;;;;;;;;;5079451;28;20393;-86
2022/04/30 09:21:15;;;;;;;15.70;14.00;;;;;;;;;;5079503;28;20436;-85
2022/04/30 09:23:42;;;;;;;16.87;14.60;;;;;;;;;;5079142;28;20386;-85
2022/04/30 09:26:08;;;;;;;16.67;14.10;;;;;;;;;;5076580;28;20398;-85
2022/04/30 09:28:38;;;;;;;17.00;13.47;;;;;;;;;;5056010;28;20410;-84
2022/04/30 09:31:14;;;;;;;21.00;13.97;;;;;;;;;;5076108;28;20426;-85
2022/04/30 09:33:49;;;;;;;16.13;13.43;;;;;;;;;;5079329;28;20428;-86
2022/04/30 09:39:10;;;;;;;19.30;12.70;;;;;;;;;;5079221;28;20388;-86
2022/04/30 09:41:36;;;;;;;15.13;13.53;;;;;;;;;;5079211;28;20413;-85
2022/04/30 09:44:06;;;;;;;13.40;11.83;;;;;;;;;;5079272;28;20404;-85
2022/04/30 09:46:36;;;;;;;16.00;12.30;;;;;;;;;;5078740;28;20398;-84
2022/04/30 09:54:38;;;;;;;18.57;13.43;;;;;;;;;;5078293;28;20438;-87
2022/04/30 09:57:07;;;;;;;15.67;12.77;;;;;;;;;;5061013;28;20469;-87
2022/04/30 09:59:34;;;;;;;14.97;12.13;;;;;;;;;;5078350;28;20428;-88
2022/04/30 10:02:01;;;;;;;13.87;11.90;;;;;;;;;;5078120;28;20417;-86
2022/04/30 10:04:27;;;;;;;15.20;13.33;;;;;;;;;;5078053;28;20386;-87
2022/04/30 10:06:53;;;;;;;16.53;13.70;;;;;;;;;;5077211;28;20420;-87
2022/04/30 10:09:29;;;;;;;16.77;13.67;;;;;;;;;;5076556;28;20417;-87
2022/04/30 10:12:07;;;;;;;16.63;13.50;;;;;;;;;;5078247;28;20414;-86
2022/04/30 10:14:36;;;;;;;17.20;12.60;;;;;;;;;;5078373;28;20393;-86
2022/04/30 10:19:41;;;;;;;14.20;12.80;;;;;;;;;;5076337;28;20413;-87
2022/04/30 10:22:13;;;;;;;15.33;12.60;;;;;;;;;;5077862;28;20437;-85
2022/04/30 10:24:46;;;;;;;15.17;13.00;;;;;;;;;;5077873;28;20481;-87
2022/04/30 10:27:13;;;;;;;16.00;12.13;;;;;;;;;;5060501;28;20473;-86
2022/04/30 10:29:52;;;;;;;13.83;11.80;;;;;;;;;;5077962;28;20497;-87
2022/04/30 10:32:26;;;;;;;14.80;11.27;;;;;;;;;;5078317;28;20445;-86
2022/04/30 10:34:53;;;;;;;12.60;11.17;;;;;;;;;;5078053;28;20412;-86
2022/04/30 10:37:33;;;;;;;13.07;11.77;;;;;;;;;;5077941;28;20472;-88
2022/04/30 10:40:00;;;;;;;12.70;11.50;;;;;;;;;;5077291;28;20405;-87
2022/04/30 10:42:33;;;;;;;14.10;11.43;;;;;;;;;;5078119;28;20412;-87
2022/04/30 10:44:59;;;;;;;14.70;10.60;;;;;;;;;;5077979;28;20397;-86
2022/04/30 10:47:25;;;;;;;15.13;10.00;;;;;;;;;;5078133;28;20467;-85
2022/04/30 10:49:51;;;;;;;12.53;9.47;;;;;;;;;;5078148;28;20390;-85
2022/04/30 10:52:22;;;;;;;12.13;9.63;;;;;;;;;;5078030;28;20485;-84
2022/04/30 10:54:50;;;;;;;16.10;10.40;;;;;;;;;;5077739;28;20397;-85
2022/04/30 10:57:16;;;;;;;12.83;11.43;;;;;;;;;;5059469;28;20461;-84
2022/04/30 10:59:42;;;;;;;13.60;11.33;;;;;;;;;;5057030;28;20426;-85
2022/04/30 11:02:12;;;;;;;16.20;11.87;;;;;;;;;;5057738;28;20423;-86
2022/04/30 11:04:42;;;;;;;14.90;12.13;;;;;;;;;;5057955;28;20403;-84
2022/04/30 11:07:09;;;;;;;16.67;13.50;;;;;;;;;;5057536;28;20390;-85
2022/04/30 11:09:47;;;;;;;14.87;11.50;;;;;;;;;;5057730;28;20386;-83
2022/04/30 11:12:17;;;;;;;12.97;11.57;;;;;;;;;;5057849;28;20543;-85
2022/04/30 11:14:45;;;;;;;17.03;11.43;;;;;;;;;;5057437;28;20485;-85
2022/04/30 11:17:11;;;;;;;13.70;11.97;;;;;;;;;;5053866;28;20465;-84
2022/04/30 11:19:44;;;;;;;12.33;11.07;;;;;;;;;;5056772;28;20505;-84
2022/04/30 11:22:10;;;;;;;13.43;10.33;;;;;;;;;;5040588;28;20441;-83
2022/04/30 11:24:39;;;;;;;12.80;11.20;;;;;;;;;;5056987;28;20418;-84
2022/04/30 11:27:07;;;;;;;11.47;10.27;;;;;;;;;;5055684;28;20298;-83
2022/04/30 11:29:35;;;;;;;14.00;11.30;;;;;;;;;;5038063;28;20442;-83
2022/04/30 11:32:01;;;;;;;19.70;11.70;;;;;;;;;;5056664;28;20438;-83
2022/04/30 11:34:27;;;;;;;10.63;9.53;;;;;;;;;;5056912;28;20410;-84
2022/04/30 11:36:54;;;;;;;12.17;10.30;;;;;;;;;;5039317;28;20516;-84
2022/04/30 11:39:22;;;;;;;11.87;10.37;;;;;;;;;;5057127;28;20407;-83
2022/04/30 11:41:50;;;;;;;12.73;10.73;;;;;;;;;;5056422;28;20401;-86
2022/04/30 11:44:17;;;;;;;12.87;11.60;;;;;;;;;;5056798;28;20183;-84
2022/04/30 11:46:45;;;;;;;12.73;11.40;;;;;;;;;;5057020;28;20401;-83
2022/04/30 11:49:11;;;;;;;15.30;11.27;;;;;;;;;;5055594;28;20433;-83
2022/04/30 11:51:38;;;;;;;12.13;10.87;;;;;;;;;;5055417;28;20541;-83
2022/04/30 11:54:08;;;;;;;13.37;11.87;;;;;;;;;;5054109;28;20438;-82
2022/04/30 11:56:34;;;;;;;14.70;10.33;;;;;;;;;;5041358;28;20423;-83
2022/04/30 11:59:00;;;;;;;18.03;10.90;;;;;;;;;;5057418;28;20399;-81
2022/04/30 12:01:27;;;;;;;15.50;10.80;;;;;;;;;;5058593;28;20457;-82
2022/04/30 12:03:54;;;;;;;12.02;10.55;;;;;;;;;;5055354;28;20809;-83
2022/04/30 12:06:20;;;;;;;14.27;10.03;;;;;;;;;;5059760;28;20183;-83
2022/04/30 12:08:46;;;;;;;10.47;9.37;;;;;;;;;;5037748;28;20487;-83
2022/04/30 12:11:12;;;;;;;13.40;10.57;;;;;;;;;;5057307;28;20449;-86
2022/04/30 12:13:38;;;;;;;12.60;10.20;;;;;;;;;;5053380;28;20392;-82
2022/04/30 12:16:05;;;;;;;13.93;10.07;;;;;;;;;;5057489;28;20422;-84
2022/04/30 12:27:04;;;;;;;11.93;9.57;;;;;;;;;;5058165;28;20418;-84
2022/04/30 12:29:30;;;;;;;11.40;9.50;;;;;;;;;;5059056;28;20466;-82
2022/04/30 12:31:57;;;;;;;10.70;9.30;;;;;;;;;;5059458;28;20410;-82
2022/04/30 12:34:25;;;;;;;10.83;9.13;;;;;;;;;;5058301;28;20457;-82
2022/04/30 12:36:56;;;;;;;10.90;9.80;;;;;;;;;;5058221;28;20468;-83
2022/04/30 12:39:23;;;;;;;10.60;9.40;;;;;;;;;;5058888;28;20429;-84
2022/04/30 12:41:50;;;;;;;12.17;9.80;;;;;;;;;;5060031;28;20407;-84
2022/04/30 12:44:16;;;;;;;10.97;9.87;;;;;;;;;;5059879;28;20469;-84
2022/04/30 12:46:47;;;;;;;10.10;8.40;;;;;;;;;;5059670;28;20424;-84
2022/04/30 12:49:16;;;;;;;10.90;8.07;;;;;;;;;;5059505;28;20431;-85
2022/04/30 12:51:43;;;;;;;10.87;8.40;;;;;;;;;;5057732;28;20442;-85
2022/04/30 12:54:12;;;;;;;9.57;7.63;;;;;;;;;;5057720;28;20403;-86
2022/04/30 12:56:39;;;;;;;10.60;9.10;;;;;;;;;;5042081;28;20418;-85
2022/04/30 12:59:05;;;;;;;7.80;7.00;;;;;;;;;;5055451;28;20469;-86
2022/04/30 13:01:33;;;;;;;10.70;7.23;;;;;;;;;;5056829;28;21009;-86
2022/04/30 13:03:59;;;;;;;8.98;7.30;;;;;;;;;;5048728;28;20410;-86
2022/04/30 13:06:25;;;;;;;8.80;7.47;;;;;;;;;;5041081;28;20253;-86
2022/04/30 13:14:21;;;;;;;8.73;7.70;;;;;;;;;;5044836;28;20420;-87
2022/04/30 13:16:48;;;;;;;10.63;6.90;;;;;;;;;;5030557;28;20451;-86
2022/04/30 13:19:15;;;;;;;9.73;8.70;;;;;;;;;;5040013;28;20418;-87
2022/04/30 13:21:41;;;;;;;10.30;8.17;;;;;;;;;;5041705;28;20454;-87
2022/04/30 13:24:11;;;;;;;10.40;7.97;;;;;;;;;;5035648;28;20433;-87
2022/04/30 13:26:37;;;;;;;11.00;8.43;;;;;;;;;;5050880;28;20434;-86
2022/04/30 13:29:03;;;;;;;8.20;7.10;;;;;;;;;;5049925;28;20429;-88
2022/04/30 13:31:29;;;;;;;10.30;7.17;;;;;;;;;;5050112;28;20492;-87
2022/04/30 13:33:56;;;;;;;8.90;7.47;;;;;;;;;;5034365;28;20442;-86
2022/04/30 13:36:22;;;;;;;13.20;7.67;;;;;;;;;;5053102;28;20398;-88
2022/04/30 13:38:48;;;;;;;8.73;7.40;;;;;;;;;;5052314;28;20450;-87
2022/04/30 13:41:14;;;;;;;8.27;7.00;;;;;;;;;;5035976;28;20445;-86
2022/04/30 13:43:41;;;;;;;9.07;6.87;;;;;;;;;;5036604;28;20425;-88
2022/04/30 13:46:08;;;;;;;9.27;7.90;;;;;;;;;;5052616;28;20411;-88
2022/04/30 13:48:34;;;;;;;7.20;6.13;;;;;;;;;;5034594;28;21002;-87
2022/04/30 13:51:05;;;;;;;8.30;6.20;;;;;;;;;;5049928;28;20446;-86
2022/04/30 13:53:31;;;;;;;8.10;7.30;;;;;;;;;;5047944;28;20386;-87
2022/04/30 13:55:58;;;;;;;12.40;6.10;;;;;;;;;;5047976;28;20989;-86
2022/04/30 13:58:27;;;;;;;8.50;5.70;;;;;;;;;;5043067;28;20532;-87
2022/04/30 14:01:02;;;;;;;6.93;6.10;;;;;;;;;;5028176;28;20442;-85
2022/04/30 14:03:32;;;;;;;9.13;6.40;;;;;;;;;;5032792;28;20430;-85
2022/04/30 14:06:00;;;;;;;16.43;6.10;;;;;;;;;;5052816;28;20419;-86
2022/04/30 14:08:26;;;;;;;6.73;4.80;;;;;;;;;;5053722;28;20417;-85
2022/04/30 14:10:52;;;;;;;7.23;6.10;;;;;;;;;;5053987;28;20426;-85
2022/04/30 14:16:06;;;;;;;8.47;6.30;;;;;;;;;;5053914;28;20517;-87
2022/04/30 14:18:35;;;;;;;7.40;5.70;;;;;;;;;;5055244;28;20477;-86
2022/04/30 14:21:08;;;;;;;6.57;5.13;;;;;;;;;;5050571;28;20446;-87
2022/04/30 14:23:34;;;;;;;7.87;5.30;;;;;;;;;;5070289;22;20576;-81
2022/04/30 14:26:00;;;;;;;6.70;5.83;;;;;;;;;;5069156;28;20431;-81
2022/04/30 14:28:26;;;;;;;6.80;6.07;;;;;;;;;;5069968;28;20417;-80
2022/04/30 14:30:52;;;;;;;8.67;6.30;;;;;;;;;;5088531;28;20436;-81
2022/04/30 14:33:19;;;;;;;6.87;5.87;;;;;;;;;;5072864;28;20449;-83
2022/04/30 14:35:45;;;;;;;10.30;6.53;;;;;;;;;;5066292;28;20409;-82
2022/04/30 14:38:12;;;;;;;6.00;5.40;;;;;;;;;;5068029;28;20449;-81
2022/04/30 14:40:42;;;;;;;6.77;6.07;;;;;;;;;;5066181;28;20418;-81
2022/04/30 14:43:09;;;;;;;7.13;5.23;;;;;;;;;;5070307;28;20940;-81
2022/04/30 14:45:36;;;;;;;10.53;6.33;;;;;;;;;;5069915;28;20476;-81
2022/04/30 14:48:02;;;;;;;8.77;6.30;;;;;;;;;;5068852;28;20417;-82
2022/04/30 14:50:28;;;;;;;6.53;5.77;;;;;;;;;;5068565;28;20430;-81
2022/04/30 14:52:54;;;;;;;6.37;5.03;;;;;;;;;;5069211;28;20854;-81
2022/04/30 14:55:20;;;;;;;7.73;6.00;;;;;;;;;;5069948;28;20412;-81
2022/04/30 14:57:46;;;;;;;7.33;5.07;;;;;;;;;;5050847;28;20480;-82
2022/04/30 15:00:13;;;;;;;6.10;5.37;;;;;;;;;;5069705;28;20413;-82
2022/04/30 15:02:39;;;;;;;6.90;5.60;;;;;;;;;;5050388;28;20448;-82
2022/04/30 15:05:05;;;;;;;7.03;6.33;;;;;;;;;;5068702;28;20794;-81
2022/04/30 15:07:32;;;;;;;6.20;5.60;;;;;;;;;;5049575;28;20474;-81
2022/04/30 15:09:58;;;;;;;7.50;6.07;;;;;;;;;;5067496;28;20252;-81
2022/04/30 15:12:24;;;;;;;8.80;6.10;;;;;;;;;;5067941;28;20419;-81
2022/04/30 15:14:50;;;;;;;7.22;5.50;;;;;;;;;;5068665;28;20480;-81
2022/04/30 15:17:16;;;;;;;6.30;5.53;;;;;;;;;;5067476;28;20431;-82
2022/04/30 15:19:42;;;;;;;7.37;6.10;;;;;;;;;;5069110;28;20170;-81
2022/04/30 15:22:08;;;;;;;7.13;5.97;;;;;;;;;;5068110;28;20449;-81